createdAt,value
2023-05-21T00:00:41.336Z,8.23
2023-05-21T00:04:44.995Z,6.65
2023-05-21T00:08:46.904Z,8.60
2023-05-21T00:12:48.674Z,8.77
2023-05-21T00:16:50.651Z,9.40
2023-05-21T00:20:53.132Z,9.68
2023-05-21T00:24:55.203Z,8.77
2023-05-21T00:28:57.159Z,9.80
2023-05-21T00:33:02.451Z,7.78
2023-05-21T00:37:04.784Z,8.50
2023-05-21T00:41:06.629Z,11.52
2023-05-21T00:45:09.110Z,12.55
2023-05-21T00:49:11.702Z,9.13
2023-05-21T00:53:15.379Z,9.85
2023-05-21T00:57:20.817Z,12.40
2023-05-21T01:01:25.873Z,10.55
2023-05-21T01:05:28.983Z,10.68
2023-05-21T01:09:30.880Z,10.05
2023-05-21T01:13:34.691Z,12.07
2023-05-21T01:17:36.872Z,11.38
2023-05-21T01:21:44.378Z,10.40
2023-05-21T01:25:47.082Z,9.15
2023-05-21T01:29:48.917Z,10.35
2023-05-21T01:33:52.780Z,12.05
2023-05-21T01:38:16.507Z,9.25
2023-05-21T01:42:19.508Z,9.77
2023-05-21T01:46:25.178Z,10.80
2023-05-21T01:50:27.408Z,9.98
2023-05-21T01:54:29.278Z,11.95
2023-05-21T01:58:31.146Z,9.65
2023-05-21T02:02:32.988Z,13.52
2023-05-21T02:06:36.001Z,10.48
2023-05-21T02:10:37.858Z,11.63
2023-05-21T02:14:39.629Z,9.27
2023-05-21T02:18:43.704Z,11.57
2023-05-21T02:22:47.384Z,10.95
2023-05-21T02:26:50.524Z,12.60
2023-05-21T02:30:52.285Z,10.60
2023-05-21T02:34:54.030Z,9.50
2023-05-21T02:38:57.849Z,8.65
2023-05-21T02:42:59.620Z,8.27
2023-05-21T02:47:01.565Z,7.63
2023-05-21T02:51:03.799Z,8.70
2023-05-21T02:55:06.348Z,10.13
2023-05-21T02:59:08.124Z,12.13
2023-05-21T03:03:11.717Z,8.70
2023-05-21T03:07:14.681Z,9.65
2023-05-21T03:11:19.274Z,14.10
2023-05-21T03:15:24.203Z,9.82
2023-05-21T03:19:26.712Z,10.85
2023-05-21T03:23:29.117Z,10.15
2023-05-21T03:27:31.416Z,10.57
2023-05-21T03:31:34.377Z,8.38
2023-05-21T03:35:42.768Z,10.30
2023-05-21T03:39:44.903Z,11.35
2023-05-21T03:43:47.463Z,8.82
2023-05-21T03:47:50.958Z,10.48
2023-05-21T03:51:54.330Z,9.23
2023-05-21T03:55:57.028Z,8.40
2023-05-21T04:00:00.303Z,9.20
2023-05-21T04:04:03.493Z,10.73
2023-05-21T04:08:07.660Z,11.40
2023-05-21T04:12:09.593Z,11.43
2023-05-21T04:16:14.834Z,11.60
2023-05-21T04:20:17.447Z,10.35
2023-05-21T04:24:19.750Z,13.80
2023-05-21T04:28:35.695Z,12.18
2023-05-21T04:32:38.834Z,13.48
2023-05-21T04:36:43.976Z,11.85
2023-05-21T04:40:50.927Z,14.88
2023-05-21T04:44:55.723Z,15.52
2023-05-21T04:48:58.337Z,12.50
2023-05-21T04:53:00.607Z,13.32
2023-05-21T04:57:02.967Z,13.38
2023-05-21T05:01:05.103Z,13.63
2023-05-21T05:05:07.220Z,13.88
2023-05-21T05:09:10.933Z,13.63
2023-05-21T05:13:12.805Z,13.60
2023-05-21T05:17:17.512Z,12.27
2023-05-21T05:21:19.401Z,13.68
2023-05-21T05:25:21.283Z,11.73
2023-05-21T05:29:23.125Z,10.82
2023-05-21T05:33:25.134Z,11.30
2023-05-21T05:37:28.116Z,10.82
2023-05-21T05:41:30.076Z,13.98
2023-05-21T05:45:31.891Z,12.98
2023-05-21T05:49:34.031Z,12.02
2023-05-21T05:53:35.804Z,9.32
2023-05-21T05:57:38.002Z,13.82
2023-05-21T06:01:45.425Z,13.02
2023-05-21T06:05:47.490Z,10.88
2023-05-21T06:09:49.282Z,11.13
2023-05-21T06:13:51.167Z,12.88
2023-05-21T06:17:54.145Z,11.32
2023-05-21T06:21:55.997Z,12.05
2023-05-21T06:25:57.898Z,12.68
2023-05-21T06:30:01.479Z,14.30
2023-05-21T06:34:06.068Z,11.43
2023-05-21T06:38:08.175Z,12.45
2023-05-21T06:42:10.038Z,12.48
2023-05-21T06:46:40.954Z,13.43
2023-05-21T06:50:44.097Z,9.95
2023-05-21T06:54:46.004Z,9.55
2023-05-21T06:58:47.910Z,11.23
2023-05-21T07:02:51.661Z,10.25
2023-05-21T07:06:54.540Z,15.00
2023-05-21T07:10:58.185Z,9.15
2023-05-21T07:15:00.940Z,10.88
2023-05-21T07:19:05.752Z,11.48
2023-05-21T07:23:07.581Z,8.52
2023-05-21T07:27:24.275Z,11.38
2023-05-21T07:31:28.300Z,9.10
2023-05-21T07:35:30.586Z,10.45
2023-05-21T07:39:32.493Z,10.10
2023-05-21T07:43:36.548Z,9.73
2023-05-21T07:47:38.681Z,11.30
2023-05-21T07:51:41.368Z,7.80
2023-05-21T07:55:47.795Z,9.45
2023-05-21T07:59:52.351Z,8.60
2023-05-21T08:03:55.909Z,11.50
2023-05-21T08:07:57.757Z,10.30
2023-05-21T08:12:00.010Z,9.13
2023-05-21T08:16:02.018Z,7.72
2023-05-21T08:20:04.720Z,9.35
2023-05-21T08:24:07.572Z,9.00
2023-05-21T08:28:09.420Z,8.80
2023-05-21T08:32:11.581Z,8.93
2023-05-21T08:36:13.870Z,8.10
2023-05-21T08:40:23.920Z,7.95
2023-05-21T08:44:27.511Z,7.03
2023-05-21T08:48:31.443Z,7.97
2023-05-21T08:52:33.384Z,7.68
2023-05-21T08:56:35.896Z,8.32
2023-05-21T09:00:37.844Z,7.40
2023-05-21T09:04:43.784Z,7.13
2023-05-21T09:08:54.005Z,9.20
2023-05-21T09:13:04.435Z,6.22
2023-05-21T09:17:06.837Z,6.82
2023-05-21T09:21:31.704Z,7.88
2023-05-21T09:25:47.495Z,8.90
2023-05-21T09:29:55.870Z,6.47
2023-05-21T09:33:57.873Z,6.40
2023-05-21T09:38:01.878Z,6.25
2023-05-21T09:42:03.805Z,5.90
2023-05-21T09:46:06.563Z,6.32
2023-05-21T09:50:13.030Z,7.72
2023-05-21T09:54:14.756Z,6.60
2023-05-21T09:58:16.578Z,6.68
2023-05-21T10:02:23.081Z,7.05
2023-05-21T10:06:28.763Z,7.78
2023-05-21T10:10:32.289Z,5.55
2023-05-21T10:14:35.121Z,7.07
2023-05-21T10:18:39.301Z,5.03
2023-05-21T10:22:42.056Z,4.88
2023-05-21T10:26:44.793Z,5.22
2023-05-21T10:30:46.775Z,4.63
2023-05-21T10:34:49.471Z,4.95
2023-05-21T10:38:51.413Z,5.07
2023-05-21T10:43:25.297Z,5.00
2023-05-21T10:47:43.263Z,4.57
2023-05-21T10:52:23.973Z,4.45
2023-05-21T10:56:32.886Z,7.38
2023-05-21T11:00:35.233Z,4.40
2023-05-21T11:04:40.022Z,5.15
2023-05-21T11:08:47.988Z,4.97
2023-05-21T11:13:12.788Z,4.20
2023-05-21T11:17:37.511Z,4.70
2023-05-21T11:21:40.263Z,4.43
2023-05-21T11:25:41.999Z,3.95
2023-05-21T11:29:44.981Z,4.30
2023-05-21T11:33:47.794Z,4.45
2023-05-21T11:37:53.914Z,5.30
2023-05-21T11:42:04.489Z,9.80
2023-05-21T11:46:06.699Z,5.22
2023-05-21T11:50:13.052Z,6.47
2023-05-21T11:54:14.961Z,5.43
2023-05-21T11:58:19.401Z,5.25
2023-05-21T12:02:22.357Z,5.20
2023-05-21T12:06:27.296Z,4.88
2023-05-21T12:10:29.043Z,5.32
2023-05-21T12:14:30.911Z,4.85
2023-05-21T12:18:32.709Z,4.82
2023-05-21T12:22:34.525Z,5.10
2023-05-21T12:26:36.408Z,6.13
2023-05-21T12:30:38.579Z,6.45
2023-05-21T12:34:46.580Z,5.18
2023-05-21T12:38:48.480Z,4.68
2023-05-21T12:42:51.617Z,5.50
2023-05-21T12:46:53.494Z,4.93
2023-05-21T12:50:55.214Z,4.95
2023-05-21T12:54:57.685Z,4.90
2023-05-21T12:58:59.405Z,6.85
2023-05-21T13:03:04.492Z,4.43
2023-05-21T13:07:06.476Z,4.97
2023-05-21T13:11:08.205Z,4.82
2023-05-21T13:15:10.518Z,5.05
2023-05-21T13:19:12.313Z,5.00
2023-05-21T13:23:17.349Z,4.90
2023-05-21T13:31:20.749Z,4.68
2023-05-21T13:35:22.515Z,4.85
2023-05-21T13:39:27.615Z,6.60
2023-05-21T13:43:29.434Z,4.60
2023-05-21T13:47:32.524Z,5.22
2023-05-21T13:51:39.044Z,4.72
2023-05-21T13:55:41.176Z,5.00
2023-05-21T13:59:43.188Z,4.88
2023-05-21T14:03:44.992Z,5.80
2023-05-21T14:07:48.287Z,6.80
2023-05-21T14:11:50.066Z,5.63
2023-05-21T14:15:51.777Z,4.30
2023-05-21T14:19:53.540Z,4.72
2023-05-21T14:23:55.244Z,4.90
2023-05-21T14:27:57.090Z,5.30
2023-05-21T14:31:58.845Z,5.38
2023-05-21T14:36:01.221Z,4.45
2023-05-21T14:40:05.564Z,4.88
2023-05-21T14:44:07.385Z,5.03
2023-05-21T14:48:09.239Z,4.70
2023-05-21T14:52:11.038Z,5.05
2023-05-21T14:56:12.757Z,5.10
2023-05-21T15:00:14.711Z,4.85
2023-05-21T15:04:16.502Z,5.40
2023-05-21T15:08:18.283Z,5.40
2023-05-21T15:12:20.494Z,6.55
2023-05-21T15:16:22.218Z,6.60
2023-05-21T15:20:24.255Z,4.97
2023-05-21T15:24:26.033Z,6.35
2023-05-21T15:28:27.758Z,6.68
2023-05-21T15:32:30.643Z,7.50
2023-05-21T15:36:32.404Z,7.45
2023-05-21T15:40:34.207Z,7.70
2023-05-21T15:44:36.066Z,6.15
2023-05-21T15:48:37.926Z,6.53
2023-05-21T15:52:39.749Z,7.88
2023-05-21T15:56:47.882Z,5.75
2023-05-21T16:00:49.671Z,6.22
2023-05-21T16:04:52.104Z,5.47
2023-05-21T16:08:54.004Z,9.20
2023-05-21T16:12:55.768Z,6.55
2023-05-21T16:16:57.563Z,8.70
2023-05-21T16:20:59.301Z,7.65
2023-05-21T16:25:01.179Z,8.75
2023-05-21T16:29:02.952Z,6.07
2023-05-21T16:33:04.779Z,5.40
2023-05-21T16:37:08.641Z,7.10
2023-05-21T16:41:10.614Z,6.47
2023-05-21T16:45:19.470Z,7.43
2023-05-21T16:49:21.182Z,6.18
2023-05-21T16:53:22.922Z,7.13
2023-05-21T16:57:24.652Z,6.05
2023-05-21T17:01:26.509Z,5.63
2023-05-21T17:05:28.367Z,7.63
2023-05-21T17:09:30.111Z,6.97
2023-05-21T17:13:31.882Z,5.43
2023-05-21T17:17:34.271Z,6.88
2023-05-21T17:21:36.172Z,5.32
2023-05-21T17:25:38.228Z,5.55
2023-05-21T17:29:40.100Z,6.43
2023-05-21T17:33:41.883Z,6.25
2023-05-21T17:37:43.706Z,5.85
2023-05-21T17:41:47.517Z,8.13
2023-05-21T17:45:49.249Z,6.97
2023-05-21T17:49:51.240Z,7.60
2023-05-21T17:53:53.001Z,6.95
2023-05-21T17:57:54.744Z,9.40
2023-05-21T18:01:57.760Z,9.00
2023-05-21T18:05:59.551Z,6.35
2023-05-21T18:10:01.490Z,6.30
2023-05-21T18:14:04.073Z,7.07
2023-05-21T18:18:05.990Z,7.18
2023-05-21T18:22:08.066Z,7.20
2023-05-21T18:26:09.788Z,7.90
2023-05-21T18:30:11.999Z,8.43
2023-05-21T18:34:15.519Z,7.93
2023-05-21T18:38:17.291Z,7.45
2023-05-21T18:42:19.070Z,7.32
2023-05-21T18:46:21.764Z,9.10
2023-05-21T18:50:23.641Z,6.32
2023-05-21T18:54:25.464Z,9.20
2023-05-21T18:58:29.287Z,8.57
2023-05-21T19:02:31.127Z,8.07
2023-05-21T19:06:32.899Z,8.98
2023-05-21T19:10:34.895Z,9.73
2023-05-21T19:14:37.024Z,7.13
2023-05-21T19:18:42.053Z,11.93
2023-05-21T19:22:45.332Z,7.05
2023-05-21T19:26:47.128Z,7.05
2023-05-21T19:30:48.878Z,11.70
2023-05-21T19:34:51.634Z,12.23
2023-05-21T19:38:53.379Z,7.40
2023-05-21T19:42:55.176Z,8.77
2023-05-21T19:46:56.916Z,8.73
2023-05-21T19:50:58.730Z,7.38
2023-05-21T19:55:04.754Z,9.30
2023-05-21T19:59:07.815Z,5.50
2023-05-21T20:03:10.685Z,11.88
2023-05-21T20:07:13.731Z,7.80
2023-05-21T20:11:15.795Z,7.45
2023-05-21T20:15:18.396Z,6.32
2023-05-21T20:19:22.694Z,9.13
2023-05-21T20:23:24.566Z,7.30
2023-05-21T20:27:26.282Z,10.52
2023-05-21T20:31:28.037Z,6.82
2023-05-21T20:35:30.296Z,8.90
2023-05-21T20:39:32.468Z,7.93
2023-05-21T20:43:37.317Z,7.50
2023-05-21T20:47:39.203Z,6.93
2023-05-21T20:51:41.454Z,8.25
2023-05-21T20:55:44.614Z,8.35
2023-05-21T20:59:46.493Z,7.72
2023-05-21T21:03:48.441Z,10.65
2023-05-21T21:07:51.808Z,6.97
2023-05-21T21:11:56.128Z,7.88
2023-05-21T21:15:57.886Z,6.30
2023-05-21T21:19:59.616Z,8.88
2023-05-21T21:24:01.431Z,10.45
2023-05-21T21:28:03.302Z,6.68
2023-05-21T21:32:05.753Z,7.70
2023-05-21T21:36:07.656Z,6.40
2023-05-21T21:40:09.723Z,7.93
2023-05-21T21:44:11.557Z,5.88
2023-05-21T21:48:13.363Z,6.25
2023-05-21T21:52:15.419Z,4.93
2023-05-21T21:56:17.324Z,6.60
2023-05-21T22:00:19.483Z,5.57
2023-05-21T22:04:21.438Z,6.18
2023-05-21T22:08:23.507Z,5.97
2023-05-21T22:12:25.363Z,6.72
2023-05-21T22:16:28.262Z,5.65
2023-05-21T22:20:30.106Z,6.72
2023-05-21T22:24:33.225Z,5.15
2023-05-21T22:28:35.397Z,6.07
2023-05-21T22:32:37.722Z,5.38
2023-05-21T22:36:39.919Z,5.53
2023-05-21T22:40:41.700Z,5.10
2023-05-21T22:44:43.585Z,4.55
2023-05-21T22:48:46.148Z,6.13
2023-05-21T22:52:47.925Z,5.00
2023-05-21T22:56:49.870Z,4.50
2023-05-21T23:00:51.810Z,5.13
2023-05-21T23:04:53.581Z,4.15
2023-05-21T23:08:55.395Z,5.28
2023-05-21T23:12:57.187Z,5.80
2023-05-21T23:17:01.915Z,5.80
2023-05-21T23:21:04.237Z,6.10
2023-05-21T23:25:06.732Z,4.82
2023-05-21T23:29:08.491Z,4.38
2023-05-21T23:33:10.366Z,4.53
2023-05-21T23:37:12.174Z,6.35
2023-05-21T23:41:13.983Z,6.20
2023-05-21T23:45:17.252Z,9.27
2023-05-21T23:49:19.025Z,4.80
2023-05-21T23:53:20.914Z,5.70
2023-05-21T23:57:22.640Z,7.32
